Time;durP1;ratioP1;P1;durP2;ratioP2;P2;SDS_P1;SDS_P2;PMS_P1;PMS_P2;Temp;Humidity;BMP_temperature;BMP_pressure;BME280_temperature;BME280_humidity;BME280_pressure;Samples;Min_cycle;Max_cycle;Signal;HPM_P1;HPM_P2
2022/09/27 00:01:50;;;;;;;0.52;0.10;;;;;;;11.00;85.75;99867.25;5052735;27;99801;-29
2022/09/27 00:04:15;;;;;;;1.25;0.28;;;;;;;10.99;85.43;99876.38;5053162;27;97841;-28
2022/09/27 00:06:40;;;;;;;0.88;0.30;;;;;;;10.98;85.67;99875.50;5053286;27;96672;-29
2022/09/27 00:09:06;;;;;;;0.05;0.00;;;;;;;10.95;85.63;99866.75;5053423;27;96787;-29
2022/09/27 00:11:38;;;;;;;0.30;0.10;;;;;;;10.97;85.79;99879.22;5053248;27;97469;-29
2022/09/27 00:14:04;;;;;;;;;;;;;;;10.97;85.89;99876.50;5053202;27;98047;-28
2022/09/27 00:16:33;;;;;;;1.52;0.22;;;;;;;10.96;85.80;99882.03;5052584;27;96515;-28
2022/09/27 00:19:03;;;;;;;0.28;0.05;;;;;;;10.92;85.65;99876.00;5034570;27;97052;-30
2022/09/27 00:21:30;;;;;;;6.22;0.35;;;;;;;10.89;85.96;99870.81;5033732;27;100949;-29
2022/09/27 00:23:56;;;;;;;0.10;0.00;;;;;;;10.86;85.75;99878.31;5052559;27;97834;-29
2022/09/27 00:26:24;;;;;;;0.47;0.20;;;;;;;10.84;85.77;99873.00;5034701;27;96735;-28
2022/09/27 00:28:49;;;;;;;0.73;0.25;;;;;;;10.84;85.89;99875.72;5034286;27;96788;-29
2022/09/27 00:31:23;;;;;;;0.75;0.13;;;;;;;10.80;85.75;99877.81;5052479;27;97346;-29
2022/09/27 00:33:52;;;;;;;0.57;0.05;;;;;;;10.80;85.94;99874.25;5034420;27;98995;-29
2022/09/27 00:36:19;;;;;;;4.10;0.20;;;;;;;10.75;85.61;99862.91;5034227;27;96673;-29
2022/09/27 00:38:45;;;;;;;3.13;0.40;;;;;;;10.73;85.82;99878.44;5034216;27;96628;-28
2022/09/27 00:41:18;;;;;;;0.95;0.22;;;;;;;10.68;85.75;99875.19;5032751;27;100815;-29
2022/09/27 00:43:52;;;;;;;0.20;0.10;;;;;;;10.68;85.81;99883.31;5034091;27;101275;-29
2022/09/27 00:46:30;;;;;;;4.57;0.20;;;;;;;10.66;85.80;99874.47;5034194;27;97006;-29
2022/09/27 00:49:04;;;;;;;7.40;0.43;;;;;;;10.69;85.86;99887.78;5052503;27;96777;-29
2022/09/27 00:51:32;;;;;;;0.65;0.20;;;;;;;10.65;85.80;99886.28;5033834;27;101430;-29
2022/09/27 00:53:58;;;;;;;0.20;0.08;;;;;;;10.63;85.99;99889.97;5033976;27;101116;-29
2022/09/27 00:56:27;;;;;;;3.10;0.47;;;;;;;10.68;86.13;99888.72;5034054;27;96903;-29
2022/09/27 00:59:02;;;;;;;8.52;0.35;;;;;;;10.65;86.08;99895.25;5034066;27;99233;-29
2022/09/27 01:01:29;;;;;;;3.60;0.32;;;;;;;10.65;86.16;99897.97;5033884;27;101434;-30
2022/09/27 01:04:06;;;;;;;0.95;0.30;;;;;;;10.67;86.18;99908.69;5052177;27;97891;-29
2022/09/27 01:06:32;;;;;;;1.55;0.30;;;;;;;10.66;86.16;99906.97;5033589;27;96970;-29
2022/09/27 01:08:58;;;;;;;0.38;0.20;;;;;;;10.62;85.98;99901.78;5033915;27;96773;-28
2022/09/27 01:11:41;;;;;;;0.20;0.10;;;;;;;10.62;86.25;99906.34;5051679;27;97890;-29
2022/09/27 01:14:43;;;;;;;1.20;0.32;;;;;;;10.62;86.37;99904.47;5051600;27;97896;-29
2022/09/27 01:18:05;;;;;;;1.92;0.40;;;;;;;10.61;86.64;99905.47;5052056;27;96590;-29
2022/09/27 01:21:15;;;;;;;1.03;0.33;;;;;;;10.63;86.55;99916.19;4949464;28;96927;-29
2022/09/27 01:24:05;;;;;;;3.42;0.25;;;;;;;10.63;86.45;99918.91;4872567;28;98091;-29
2022/09/27 01:26:34;;;;;;;0.55;0.22;;;;;;;10.65;86.69;99918.78;5023276;27;100709;-29
2022/09/27 01:29:02;;;;;;;3.30;0.50;;;;;;;10.61;85.99;99905.47;5033470;27;96670;-28
2022/09/27 01:31:54;;;;;;;1.98;0.28;;;;;;;10.65;86.13;99911.50;5051900;27;96639;-28
2022/09/27 01:34:26;;;;;;;1.50;0.30;;;;;;;10.65;85.86;99913.34;5032891;27;101633;-28
2022/09/27 01:36:57;;;;;;;;;;;;;;;10.68;85.87;99918.53;5034027;27;100767;-28
2022/09/27 01:39:32;;;;;;;1.05;0.25;;;;;;;10.68;85.99;99914.00;5051768;27;96586;-29
2022/09/27 01:42:04;;;;;;;3.95;0.45;;;;;;;10.69;85.74;99904.00;5033657;27;96663;-29
2022/09/27 01:44:32;;;;;;;1.17;0.22;;;;;;;10.68;85.47;99910.41;5033693;27;99024;-29
2022/09/27 01:47:04;;;;;;;0.22;0.10;;;;;;;10.61;85.57;99908.19;5051989;27;97296;-29
2022/09/27 01:49:48;;;;;;;2.92;0.32;;;;;;;10.68;nan;99916.69;5051701;27;96562;-28
2022/09/27 01:52:19;;;;;;;2.53;0.40;;;;;;;10.69;85.68;99920.25;5035578;27;96743;-29
2022/09/27 01:54:51;;;;;;;1.40;0.37;;;;;;;10.71;85.62;99911.03;5036743;27;101187;-30
2022/09/27 01:57:22;;;;;;;4.22;0.50;;;;;;;10.71;85.55;99908.34;5036516;27;100904;-30
2022/09/27 02:00:00;;;;;;;5.00;0.43;;;;;;;10.71;85.33;99902.06;5054395;27;96600;-29
2022/09/27 02:02:28;;;;;;;3.25;0.45;;;;;;;10.69;85.04;99895.91;5055230;27;96512;-29
2022/09/27 02:05:00;;;;;;;4.53;0.47;;;;;;;10.69;85.36;99893.19;5036342;27;100784;-29
2022/09/27 02:07:35;;;;;;;0.40;0.30;;;;;;;10.68;85.82;99895.03;5036316;27;101265;-28
2022/09/27 02:10:11;;;;;;;1.05;0.22;;;;;;;10.65;85.72;99889.84;5036573;27;98321;-29
2022/09/27 02:12:48;;;;;;;2.72;0.28;;;;;;;10.62;85.69;99880.09;5054713;27;96550;-29
2022/09/27 02:15:15;;;;;;;0.50;0.05;;;;;;;10.62;85.80;99876.53;5036452;27;101534;-29
2022/09/27 02:17:47;;;;;;;1.90;0.40;;;;;;;10.62;85.67;99884.66;5036631;27;100864;-30
2022/09/27 02:20:51;;;;;;;3.65;0.30;;;;;;;10.59;85.89;99874.06;5035756;27;96670;-28
2022/09/27 02:23:51;;;;;;;0.10;0.10;;;;;;;10.56;85.76;99875.19;5036510;27;96888;-28
2022/09/27 02:26:19;;;;;;;1.20;0.32;;;;;;;10.52;85.81;99876.38;5054089;27;98094;-29
2022/09/27 02:29:01;;;;;;;1.25;0.35;;;;;;;10.51;85.78;99887.31;5054828;27;97323;-28
2022/09/27 02:31:26;;;;;;;;;;;;;;;10.50;85.96;99893.75;5036201;27;96648;-29
2022/09/27 02:33:58;;;;;;;0.00;0.00;;;;;;;10.44;85.94;99905.91;5054843;27;96790;-29
2022/09/27 02:36:23;;;;;;;;;;;;;;;10.43;85.36;99923.13;5036499;27;100898;-31
2022/09/27 02:38:50;;;;;;;3.28;0.20;;;;;;;10.39;85.38;99932.44;5054272;27;99000;-29
2022/09/27 02:41:20;;;;;;;2.00;0.47;;;;;;;10.39;85.73;99937.84;5036000;27;96538;-30
2022/09/27 02:43:51;;;;;;;0.75;0.38;;;;;;;10.37;85.52;99934.44;5054992;27;96560;-29
2022/09/27 02:46:22;;;;;;;3.40;0.40;;;;;;;10.44;85.88;99938.41;5054459;27;97466;-29
2022/09/27 02:49:09;;;;;;;0.00;0.00;;;;;;;10.45;85.79;99931.13;5054392;27;97439;-29
2022/09/27 02:51:55;;;;;;;2.83;0.63;;;;;;;10.46;85.94;99922.88;5053364;27;96672;-29
2022/09/27 02:54:46;;;;;;;0.95;0.30;;;;;;;10.47;86.13;99918.34;5035900;27;96795;-29
2022/09/27 02:57:24;;;;;;;0.98;0.32;;;;;;;10.46;85.73;99914.75;5054269;27;98005;-28
2022/09/27 03:00:04;;;;;;;0.20;0.10;;;;;;;10.43;85.83;99912.28;5035253;27;100583;-28
2022/09/27 03:02:47;;;;;;;0.88;0.10;;;;;;;10.45;85.87;99921.16;5053856;27;96589;-29
2022/09/27 03:05:35;;;;;;;1.45;0.15;;;;;;;10.42;85.87;99918.69;5053566;27;96657;-30
2022/09/27 03:08:00;;;;;;;5.97;0.40;;;;;;;10.41;85.86;99919.66;5035434;27;101300;-29
2022/09/27 03:10:28;;;;;;;3.80;0.28;;;;;;;10.37;85.81;99908.22;5054224;27;97928;-29
2022/09/27 03:12:55;;;;;;;1.15;0.30;;;;;;;10.35;86.06;99899.34;5035319;27;96952;-29
2022/09/27 03:15:21;;;;;;;2.10;0.25;;;;;;;10.38;86.42;99906.38;5035482;27;96813;-29
2022/09/27 03:17:46;;;;;;;1.00;0.50;;;;;;;10.39;86.51;99899.97;5052927;27;106919;-29
2022/09/27 03:20:11;;;;;;;0.17;0.17;;;;;;;10.40;86.42;99897.16;5053156;27;102352;-29
2022/09/27 03:22:37;;;;;;;0.52;0.28;;;;;;;10.41;86.36;99901.56;5035469;27;96562;-29
2022/09/27 03:25:06;;;;;;;3.05;0.77;;;;;;;10.43;86.40;99903.31;5053635;27;96919;-29
2022/09/27 03:27:31;;;;;;;0.28;0.03;;;;;;;10.38;86.74;99898.25;5053302;27;100123;-29
2022/09/27 03:29:58;;;;;;;1.00;0.40;;;;;;;10.37;86.53;99897.38;5053359;27;99243;-29
2022/09/27 03:32:24;;;;;;;1.55;0.57;;;;;;;10.34;86.56;99899.44;5053317;27;97237;-30
2022/09/27 03:34:49;;;;;;;2.67;0.47;;;;;;;10.31;86.46;99887.00;5035657;27;96825;-29
2022/09/27 03:37:14;;;;;;;0.63;0.08;;;;;;;10.32;86.56;99896.00;5053432;27;98021;-29
2022/09/27 03:39:40;;;;;;;2.20;0.17;;;;;;;10.32;86.56;99898.69;5053343;27;98606;-29
2022/09/27 03:42:05;;;;;;;0.00;0.00;;;;;;;10.30;86.41;99892.56;5052864;27;96490;-29
2022/09/27 03:44:31;;;;;;;0.55;0.15;;;;;;;10.31;86.50;99902.41;5053564;27;96869;-30
2022/09/27 03:46:57;;;;;;;6.55;0.28;;;;;;;10.33;86.32;99905.84;5053000;27;99517;-29
2022/09/27 03:49:23;;;;;;;0.88;0.10;;;;;;;10.33;86.49;99922.94;5034676;27;100960;-29
2022/09/27 03:51:48;;;;;;;0.77;0.28;;;;;;;10.33;86.61;99927.50;5053049;27;96614;-29
2022/09/27 03:54:13;;;;;;;0.40;0.10;;;;;;;10.34;86.52;99935.50;5053216;27;96879;-29
2022/09/27 03:56:38;;;;;;;6.90;0.50;;;;;;;10.27;86.63;99930.63;5053169;27;98423;-29
2022/09/27 03:59:04;;;;;;;6.82;0.63;;;;;;;10.27;86.96;99938.75;5053243;27;98930;-29
2022/09/27 04:01:29;;;;;;;2.70;0.40;;;;;;;10.28;86.58;99924.25;5052908;27;96558;-28
2022/09/27 04:03:55;;;;;;;0.10;0.10;;;;;;;10.30;86.50;99922.34;5053002;27;96771;-28
2022/09/27 04:06:21;;;;;;;0.57;0.28;;;;;;;10.31;86.54;99918.63;5052590;27;98068;-30
2022/09/27 04:08:47;;;;;;;1.30;0.32;;;;;;;10.31;86.65;99913.22;5034434;27;100836;-28
2022/09/27 04:11:14;;;;;;;0.08;0.08;;;;;;;10.34;86.81;99923.81;5053037;27;96519;-29
2022/09/27 04:13:39;;;;;;;0.45;0.10;;;;;;;10.34;86.89;99942.75;5034352;27;96799;-29
2022/09/27 04:16:05;;;;;;;1.48;0.43;;;;;;;10.29;86.64;99924.16;5052641;27;99735;-28
2022/09/27 04:18:30;;;;;;;0.98;0.20;;;;;;;10.23;86.32;99907.50;5052821;27;97567;-29
2022/09/27 04:20:56;;;;;;;0.35;0.20;;;;;;;10.21;86.09;99903.06;5052133;27;96478;-28
2022/09/27 04:23:21;;;;;;;2.05;0.40;;;;;;;10.21;86.43;99905.75;5053273;27;96808;-29
2022/09/27 04:25:48;;;;;;;0.28;0.08;;;;;;;10.21;86.27;99913.03;5034248;27;101157;-28
2022/09/27 04:28:14;;;;;;;1.05;0.38;;;;;;;10.24;86.34;99914.63;5034164;27;101234;-29
2022/09/27 04:30:40;;;;;;;0.28;0.17;;;;;;;10.24;86.53;99912.78;5051867;27;96679;-29
2022/09/27 04:33:05;;;;;;;4.03;0.28;;;;;;;10.22;86.36;99909.31;5052464;27;96731;-29
2022/09/27 04:38:14;;;;;;;3.90;0.13;;;;;;;10.23;86.28;99915.63;5052793;27;97006;-29
2022/09/27 04:40:40;;;;;;;0.55;0.20;;;;;;;10.23;86.26;99927.31;5052741;27;96601;-29
2022/09/27 04:43:06;;;;;;;0.30;0.10;;;;;;;10.18;86.06;99913.25;5034389;27;96891;-29
2022/09/27 04:45:32;;;;;;;0.25;0.20;;;;;;;10.13;86.28;99921.72;5052155;27;99056;-28
2022/09/27 04:47:57;;;;;;;0.55;0.15;;;;;;;10.10;86.28;99915.66;5052469;27;99336;-32
2022/09/27 04:50:22;;;;;;;2.30;0.10;;;;;;;10.16;86.68;99904.38;5052235;27;96597;-29
2022/09/27 04:52:52;;;;;;;0.43;0.25;;;;;;;10.14;86.50;99909.91;5052568;27;96787;-30
2022/09/27 04:55:19;;;;;;;4.75;0.35;;;;;;;10.15;86.75;99922.47;5033363;27;100878;-29
2022/09/27 04:57:44;;;;;;;0.65;0.03;;;;;;;10.15;86.54;99927.88;5033896;27;101367;-29
2022/09/27 05:00:10;;;;;;;0.20;0.13;;;;;;;10.11;86.41;99920.97;5052489;27;96443;-30
2022/09/27 05:02:35;;;;;;;0.05;0.05;;;;;;;10.00;86.60;99915.47;5034006;27;96822;-29
2022/09/27 05:05:01;;;;;;;1.27;0.10;;;;;;;9.91;86.46;99911.59;5052254;27;98041;-29
2022/09/27 05:07:27;;;;;;;0.17;0.10;;;;;;;9.87;86.42;99911.97;5052317;27;98022;-29
2022/09/27 05:09:53;;;;;;;0.00;0.00;;;;;;;9.85;86.59;99908.53;5033761;27;96570;-29
2022/09/27 05:12:19;;;;;;;0.00;0.00;;;;;;;9.81;86.55;99910.56;5034098;27;96798;-28
2022/09/27 05:14:45;;;;;;;3.40;0.50;;;;;;;9.85;86.67;99911.22;5052084;27;97978;-29
2022/09/27 05:17:11;;;;;;;1.25;0.25;;;;;;;9.85;86.78;99912.09;5051721;27;99391;-28
2022/09/27 05:19:38;;;;;;;0.00;0.00;;;;;;;9.90;86.61;99914.44;5033356;27;96655;-29
2022/09/27 05:22:04;;;;;;;0.25;0.17;;;;;;;9.94;86.52;99905.13;5051863;27;96713;-28
2022/09/27 05:24:31;;;;;;;0.13;0.13;;;;;;;9.94;86.54;99899.72;5052144;27;97483;-28
2022/09/27 05:27:00;;;;;;;0.80;0.20;;;;;;;9.96;86.60;99908.56;5034771;27;101390;-28
2022/09/27 05:29:26;;;;;;;0.98;0.20;;;;;;;9.97;86.55;99904.91;5037280;27;96771;-29
2022/09/27 05:31:51;;;;;;;2.42;0.30;;;;;;;9.93;86.05;99909.66;5054924;27;96933;-28
2022/09/27 05:34:19;;;;;;;0.25;0.13;;;;;;;9.92;86.56;99918.78;5055259;27;98112;-29
2022/09/27 05:36:46;;;;;;;0.38;0.30;;;;;;;9.98;86.45;99921.00;5055633;27;99283;-29
2022/09/27 05:39:12;;;;;;;1.17;0.10;;;;;;;10.03;86.46;99926.06;5037071;27;96634;-28
2022/09/27 05:41:38;;;;;;;1.27;0.13;;;;;;;10.03;86.08;99917.94;5055264;27;96776;-28
2022/09/27 05:44:04;;;;;;;0.30;0.20;;;;;;;10.03;86.26;99926.06;5036382;27;100856;-29
2022/09/27 05:46:30;;;;;;;0.25;0.20;;;;;;;9.99;86.18;99924.59;5054720;27;99648;-28
2022/09/27 05:48:55;;;;;;;0.40;0.28;;;;;;;10.03;86.32;99936.91;5055305;27;96469;-29
2022/09/27 05:51:20;;;;;;;3.10;0.45;;;;;;;10.05;86.27;99924.13;5055179;27;96877;-28
2022/09/27 05:53:46;;;;;;;5.65;0.73;;;;;;;10.00;86.23;99921.75;5055184;27;98297;-28
2022/09/27 05:56:12;;;;;;;0.45;0.25;;;;;;;9.95;86.05;99915.81;5054812;27;99100;-28
2022/09/27 05:58:37;;;;;;;2.15;0.10;;;;;;;9.95;86.12;99923.94;5054875;27;105019;-29
2022/09/27 06:01:06;;;;;;;0.47;0.17;;;;;;;9.99;86.09;99927.28;5055205;27;96774;-28
2022/09/27 06:03:33;;;;;;;0.40;0.10;;;;;;;9.97;86.28;99926.53;5036468;27;100716;-29
2022/09/27 06:06:04;;;;;;;2.25;0.30;;;;;;;10.02;86.25;99929.75;5036518;27;100722;-28
2022/09/27 06:08:33;;;;;;;1.52;0.40;;;;;;;9.97;86.02;99929.25;5036193;27;96904;-28
2022/09/27 06:11:10;;;;;;;0.65;0.25;;;;;;;9.98;86.39;99918.28;5054800;27;96719;-28
2022/09/27 06:13:35;;;;;;;3.10;0.28;;;;;;;9.97;86.59;99926.53;5035810;27;100794;-30
2022/09/27 06:16:02;;;;;;;1.10;0.32;;;;;;;10.02;86.68;99921.66;5036278;27;101243;-28
2022/09/27 06:18:28;;;;;;;4.30;0.65;;;;;;;9.98;86.41;99912.03;5036436;27;96695;-28
2022/09/27 06:20:53;;;;;;;3.55;0.70;;;;;;;10.01;86.35;99919.94;5053958;27;96867;-29
2022/09/27 06:23:21;;;;;;;0.22;0.22;;;;;;;9.99;86.29;99920.03;5036080;27;100813;-28
2022/09/27 06:25:47;;;;;;;1.92;0.47;;;;;;;9.99;86.17;99917.34;5036534;27;100510;-28
2022/09/27 06:28:13;;;;;;;2.30;0.57;;;;;;;9.99;86.65;99922.75;5054841;27;96673;-29
2022/09/27 06:30:45;;;;;;;5.47;0.40;;;;;;;10.02;86.70;99923.50;5036567;27;96895;-28
2022/09/27 06:33:14;;;;;;;2.53;0.30;;;;;;;9.97;86.12;99921.13;5035597;27;100904;-28
2022/09/27 06:35:44;;;;;;;1.80;0.60;;;;;;;10.00;86.77;99929.00;5036112;27;100758;-29
2022/09/27 06:38:15;;;;;;;2.08;0.43;;;;;;;10.01;86.41;99922.63;5035131;27;96658;-28
2022/09/27 06:40:44;;;;;;;1.63;0.40;;;;;;;10.00;86.52;99921.75;5036110;27;96603;-29
2022/09/27 06:43:12;;;;;;;0.40;0.30;;;;;;;10.02;86.80;99928.91;5054699;27;97363;-29
2022/09/27 06:45:38;;;;;;;0.70;0.30;;;;;;;10.05;87.39;99934.94;5035772;27;101105;-30
2022/09/27 06:48:05;;;;;;;2.10;0.40;;;;;;;10.05;86.85;99931.38;5035901;27;96614;-31
2022/09/27 06:50:33;;;;;;;3.08;0.50;;;;;;;10.05;87.09;99928.66;5036307;27;96813;-29
2022/09/27 06:52:59;;;;;;;4.38;0.47;;;;;;;10.04;86.88;99922.41;5035572;27;101550;-29
2022/09/27 06:55:25;;;;;;;0.05;0.03;;;;;;;9.98;87.21;99923.69;5035598;27;101117;-29
2022/09/27 07:00:41;;;;;;;0.75;0.30;;;;;;;10.02;87.60;99927.06;5054367;27;96564;-28
2022/09/27 07:03:08;;;;;;;0.43;0.08;;;;;;;10.00;87.57;99939.84;5035542;27;100852;-29
2022/09/27 07:05:34;;;;;;;1.27;0.25;;;;;;;10.02;87.46;99937.88;5035176;27;101226;-29
2022/09/27 07:07:59;;;;;;;5.97;0.45;;;;;;;10.00;87.29;99943.41;5053838;27;96463;-28
2022/09/27 07:10:27;;;;;;;2.72;0.40;;;;;;;10.04;87.34;99951.31;5053995;27;96786;-28
2022/09/27 07:12:52;;;;;;;1.08;0.30;;;;;;;10.03;87.43;99950.41;5035200;27;101238;-29
2022/09/27 07:15:22;;;;;;;2.42;0.30;;;;;;;10.06;86.97;99944.81;5054344;27;97873;-29
2022/09/27 07:17:57;;;;;;;1.40;0.60;;;;;;;10.11;86.97;99953.44;5053827;27;97337;-28
2022/09/27 07:20:24;;;;;;;1.55;0.20;;;;;;;10.12;86.89;99959.72;5035496;27;96696;-29
2022/09/27 07:22:49;;;;;;;0.28;0.10;;;;;;;10.14;87.16;99961.31;5035013;27;101146;-29
2022/09/27 07:25:15;;;;;;;1.15;0.40;;;;;;;10.21;87.09;99969.84;5053676;27;98031;-28
2022/09/27 07:27:40;;;;;;;1.00;0.20;;;;;;;10.22;87.22;99979.69;5053994;27;96455;-30
2022/09/27 07:30:08;;;;;;;0.40;0.20;;;;;;;10.21;87.16;99976.13;5053818;27;96728;-29
2022/09/27 07:32:37;;;;;;;1.58;0.40;;;;;;;10.23;86.91;99975.16;5053134;27;99555;-30
2022/09/27 07:35:04;;;;;;;1.48;0.55;;;;;;;10.24;86.70;99982.28;5035067;27;100985;-28
2022/09/27 07:37:36;;;;;;;0.80;0.40;;;;;;;10.28;86.59;99972.97;5035257;27;97230;-29
2022/09/27 07:40:06;;;;;;;1.08;0.75;;;;;;;10.24;85.53;99968.75;5035635;27;96801;-28
2022/09/27 07:42:32;;;;;;;1.25;0.60;;;;;;;10.27;85.86;99977.50;5053079;27;99446;-29
2022/09/27 07:44:57;;;;;;;2.20;0.55;;;;;;;10.28;86.11;99968.47;5053407;27;97680;-29
2022/09/27 07:47:24;;;;;;;0.85;0.32;;;;;;;10.30;85.95;99962.94;5053052;27;96505;-29
2022/09/27 07:49:51;;;;;;;3.33;0.57;;;;;;;10.34;86.17;99964.41;5034536;27;97635;-30
2022/09/27 07:52:16;;;;;;;1.15;0.60;;;;;;;10.37;86.10;99956.94;5034768;27;101437;-29
2022/09/27 07:54:42;;;;;;;5.32;0.77;;;;;;;10.39;86.17;99960.41;5053177;27;97799;-28
2022/09/27 07:57:07;;;;;;;3.08;0.30;;;;;;;10.40;86.41;99962.13;5053447;27;96467;-28
2022/09/27 07:59:33;;;;;;;2.50;0.35;;;;;;;10.46;86.33;99962.63;5053128;27;96939;-30
2022/09/27 08:01:58;;;;;;;1.85;0.40;;;;;;;10.47;86.29;99970.66;5053072;27;97472;-29
2022/09/27 08:04:23;;;;;;;0.47;0.28;;;;;;;10.50;86.31;99986.66;5053376;27;97842;-29
2022/09/27 08:06:49;;;;;;;0.10;0.10;;;;;;;10.51;86.25;99987.50;5053205;27;96867;-29
2022/09/27 08:09:14;;;;;;;0.05;0.05;;;;;;;10.48;86.02;99994.03;5053591;27;96728;-29
2022/09/27 08:11:39;;;;;;;0.10;0.10;;;;;;;10.50;86.23;100004.75;5052110;27;99601;-29
2022/09/27 08:14:05;;;;;;;2.08;0.28;;;;;;;10.46;86.17;100014.94;5052699;27;98435;-29
2022/09/27 08:16:33;;;;;;;0.57;0.17;;;;;;;10.45;86.03;100005.09;5052480;27;96684;-29
2022/09/27 08:18:58;;;;;;;5.13;0.10;;;;;;;10.40;86.24;100005.44;5034632;27;96636;-29
2022/09/27 08:21:23;;;;;;;0.00;0.00;;;;;;;10.44;86.26;100011.50;5052485;27;97418;-29
2022/09/27 08:23:49;;;;;;;2.33;0.40;;;;;;;10.43;86.02;100008.91;5052575;27;98466;-29
2022/09/27 08:26:14;;;;;;;2.85;0.20;;;;;;;10.43;86.27;100012.47;5052526;27;101765;-31
2022/09/27 08:28:39;;;;;;;0.57;0.38;;;;;;;10.43;86.11;100006.19;5053280;27;96809;-29
2022/09/27 08:31:05;;;;;;;1.30;0.22;;;;;;;10.40;86.32;100008.13;5052219;27;99302;-30
2022/09/27 08:33:30;;;;;;;4.43;0.20;;;;;;;10.36;85.79;100003.06;5051625;27;113165;-29
2022/09/27 08:35:55;;;;;;;0.17;0.10;;;;;;;10.38;86.01;100012.81;5052031;27;96545;-31
2022/09/27 08:38:21;;;;;;;0.10;0.10;;;;;;;10.34;85.75;100005.03;5052635;27;96991;-29
2022/09/27 08:40:54;;;;;;;0.22;0.10;;;;;;;10.39;86.02;100022.66;5052296;27;99482;-29
2022/09/27 08:43:38;;;;;;;4.43;0.65;;;;;;;10.43;86.23;100017.00;5052498;27;97900;-29
2022/09/27 08:46:22;;;;;;;0.38;0.28;;;;;;;10.40;86.27;100018.13;5052664;27;96572;-29
2022/09/27 08:48:58;;;;;;;2.90;0.75;;;;;;;10.37;86.55;100021.06;5034324;27;96731;-29
2022/09/27 08:51:30;;;;;;;2.92;0.32;;;;;;;10.36;86.55;100024.72;5033816;27;101040;-29
2022/09/27 08:54:02;;;;;;;0.57;0.25;;;;;;;10.37;86.40;100024.63;5034149;27;101008;-29
2022/09/27 08:56:28;;;;;;;0.70;0.28;;;;;;;10.31;86.39;100021.50;5034173;27;96796;-29
2022/09/27 08:59:15;;;;;;;4.45;0.47;;;;;;;10.35;86.71;100037.41;5033978;27;96878;-30
2022/09/27 09:01:41;;;;;;;4.20;0.77;;;;;;;10.38;86.65;100039.00;5052362;27;99394;-29
2022/09/27 09:04:09;;;;;;;1.67;0.68;;;;;;;10.42;86.51;100035.09;5037446;27;101269;-29
2022/09/27 09:07:18;;;;;;;0.52;0.30;;;;;;;10.45;86.67;100034.03;5037675;27;96803;-29
2022/09/27 09:09:51;;;;;;;1.95;0.57;;;;;;;10.50;86.52;100032.69;5041714;27;96811;-29
2022/09/27 09:15:20;;;;;;;0.95;0.40;;;;;;;10.50;85.86;100035.38;5053218;27;97013;-29
2022/09/27 09:18:00;;;;;;;0.60;0.15;;;;;;;10.54;85.74;100034.19;5037512;27;96751;-29
2022/09/27 09:20:51;;;;;;;1.70;0.40;;;;;;;10.56;85.55;100021.41;5037670;27;96769;-29
2022/09/27 09:23:23;;;;;;;1.77;0.27;;;;;;;10.60;85.30;100020.19;5043342;27;98513;-28
2022/09/27 09:26:04;;;;;;;0.73;0.25;;;;;;;10.62;85.95;100020.06;5055491;27;99037;-29
2022/09/27 09:28:44;;;;;;;0.57;0.43;;;;;;;10.63;85.55;100022.69;5036874;27;97306;-29
2022/09/27 09:31:27;;;;;;;4.85;0.90;;;;;;;10.58;85.97;100015.84;5037155;27;98507;-29
2022/09/27 09:33:59;;;;;;;2.22;0.43;;;;;;;10.61;86.24;100023.78;5037071;27;101492;-30
2022/09/27 09:36:31;;;;;;;2.15;0.63;;;;;;;10.65;86.51;100027.09;5036959;27;101394;-29
2022/09/27 09:39:19;;;;;;;1.30;0.40;;;;;;;10.61;86.08;100016.50;5037171;27;96629;-28
2022/09/27 09:42:05;;;;;;;0.60;0.40;;;;;;;10.58;86.53;100026.69;5036810;27;96668;-28
2022/09/27 09:44:57;;;;;;;1.48;0.52;;;;;;;10.52;86.39;100035.28;5036941;27;101185;-29
2022/09/27 09:47:28;;;;;;;2.63;0.50;;;;;;;10.55;86.75;100045.88;5055796;27;98108;-28
2022/09/27 09:50:02;;;;;;;4.50;0.50;;;;;;;10.49;86.65;100052.63;5054984;27;96572;-29
2022/09/27 09:52:42;;;;;;;0.40;0.20;;;;;;;10.34;86.90;100037.50;5036765;27;96977;-30
2022/09/27 09:55:23;;;;;;;1.83;0.22;;;;;;;10.38;86.91;100050.69;5036395;27;101215;-29
2022/09/27 09:58:19;;;;;;;0.32;0.13;;;;;;;10.40;86.85;100062.28;5036685;27;101315;-31
2022/09/27 10:00:46;;;;;;;1.10;0.50;;;;;;;10.33;87.21;100052.88;5027622;27;96831;-29
2022/09/27 10:03:11;;;;;;;1.95;0.55;;;;;;;10.31;86.87;100056.69;5055025;27;96884;-28
2022/09/27 10:05:36;;;;;;;0.73;0.43;;;;;;;10.24;87.33;100053.53;5054735;27;99310;-29
2022/09/27 10:08:06;;;;;;;0.43;0.28;;;;;;;10.17;87.11;100053.09;5054971;27;98036;-30
2022/09/27 10:10:32;;;;;;;0.17;0.17;;;;;;;10.15;86.97;100055.06;5036490;27;96630;-30
2022/09/27 10:12:57;;;;;;;0.52;0.32;;;;;;;10.11;87.10;100052.69;5054848;27;96842;-29
2022/09/27 10:15:27;;;;;;;0.32;0.20;;;;;;;10.12;87.30;100057.97;5055064;27;97309;-29
2022/09/27 10:17:56;;;;;;;0.28;0.17;;;;;;;10.11;86.94;100066.22;5036385;27;100868;-28
2022/09/27 10:20:43;;;;;;;0.77;0.13;;;;;;;10.09;87.19;100055.50;5035817;27;97318;-30
2022/09/27 10:23:15;;;;;;;0.38;0.28;;;;;;;10.10;87.00;100050.94;5054982;27;96542;-29
2022/09/27 10:25:48;;;;;;;3.33;0.65;;;;;;;10.13;87.17;100056.13;5054521;27;98176;-29
2022/09/27 10:28:37;;;;;;;1.40;0.52;;;;;;;10.14;87.05;100055.19;5036256;27;100798;-29
2022/09/27 10:31:15;;;;;;;2.13;0.15;;;;;;;10.12;87.01;100059.84;5036227;27;96700;-32
2022/09/27 10:33:52;;;;;;;2.83;0.20;;;;;;;10.16;86.99;100067.63;5054283;27;96991;-28
2022/09/27 10:36:28;;;;;;;0.20;0.10;;;;;;;10.14;86.71;100061.44;5036022;27;100976;-29
2022/09/27 10:38:56;;;;;;;0.10;0.10;;;;;;;10.10;86.94;100062.63;5036508;27;100511;-29
2022/09/27 10:41:30;;;;;;;0.35;0.20;;;;;;;10.13;86.70;100067.84;5036108;27;96576;-30
2022/09/27 10:43:56;;;;;;;0.10;0.10;;;;;;;10.14;86.70;100066.00;5054670;27;96665;-29
2022/09/27 10:46:27;;;;;;;1.60;0.20;;;;;;;10.09;86.67;100052.81;5053673;27;99367;-29
2022/09/27 10:49:20;;;;;;;2.35;0.45;;;;;;;10.08;86.55;100037.56;5035895;27;100801;-28
2022/09/27 10:51:49;;;;;;;0.70;0.17;;;;;;;10.01;86.01;100025.44;5054323;27;96811;-29
2022/09/27 10:54:21;;;;;;;0.20;0.10;;;;;;;9.95;86.21;100026.75;5035843;27;96857;-29
2022/09/27 10:56:58;;;;;;;0.00;0.00;;;;;;;9.93;86.72;100022.41;5035588;27;101497;-29
2022/09/27 10:59:25;;;;;;;0.38;0.32;;;;;;;9.93;86.76;100030.53;5035646;27;100835;-29
2022/09/27 11:01:51;;;;;;;3.28;0.60;;;;;;;9.97;87.00;100021.22;5035631;27;96645;-29
2022/09/27 11:04:29;;;;;;;0.20;0.20;;;;;;;9.94;86.55;100030.44;5036204;27;96824;-29
2022/09/27 11:07:17;;;;;;;0.10;0.00;;;;;;;9.98;86.54;100029.22;5053957;27;99793;-29
2022/09/27 11:10:01;;;;;;;0.22;0.10;;;;;;;10.01;86.25;100022.75;5053773;27;99198;-30
2022/09/27 11:12:29;;;;;;;0.90;0.17;;;;;;;10.05;86.40;100026.94;5053326;27;96477;-29
2022/09/27 11:15:05;;;;;;;0.93;0.32;;;;;;;10.05;86.34;100013.41;5035498;27;96876;-30
2022/09/27 11:17:41;;;;;;;0.75;0.30;;;;;;;10.10;86.70;100021.19;5053881;27;98274;-29
2022/09/27 11:20:20;;;;;;;2.05;0.50;;;;;;;10.13;86.61;100018.25;5035551;27;101004;-29
2022/09/27 11:23:13;;;;;;;0.08;0.05;;;;;;;10.14;86.29;100014.59;5035294;27;96814;-29
2022/09/27 11:25:55;;;;;;;1.73;0.50;;;;;;;10.15;86.21;100014.47;5034753;27;96704;-29
2022/09/27 11:28:32;;;;;;;0.20;0.20;;;;;;;10.19;86.20;100015.97;5035298;27;101370;-29
2022/09/27 11:31:26;;;;;;;0.35;0.32;;;;;;;10.27;86.06;100003.72;5035464;27;101091;-29
2022/09/27 11:33:52;;;;;;;4.07;0.80;;;;;;;10.29;85.91;100007.22;5053557;27;96652;-31
2022/09/27 11:36:33;;;;;;;1.20;0.43;;;;;;;10.28;85.96;100006.34;5053342;27;96779;-29
2022/09/27 11:39:10;;;;;;;0.65;0.20;;;;;;;10.31;85.51;100010.66;5034557;27;100902;-30
2022/09/27 11:41:58;;;;;;;1.02;0.45;;;;;;;10.32;85.97;99999.75;5053136;27;99307;-29
2022/09/27 11:44:33;;;;;;;0.22;0.20;;;;;;;10.40;85.33;100010.00;5035208;27;96641;-30
2022/09/27 11:47:27;;;;;;;0.75;0.38;;;;;;;10.39;85.25;100001.00;5034752;27;96801;-28
2022/09/27 11:50:21;;;;;;;0.30;0.20;;;;;;;10.41;85.40;100009.00;5034994;27;101254;-29
2022/09/27 11:52:58;;;;;;;0.68;0.35;;;;;;;10.39;85.78;100003.72;5053144;27;99449;-29
2022/09/27 11:55:54;;;;;;;1.02;0.43;;;;;;;10.44;85.48;100002.50;5053433;27;96434;-29
2022/09/27 11:59:01;;;;;;;1.83;0.82;;;;;;;10.39;86.04;99992.88;5053727;27;96811;-28
2022/09/27 12:01:42;;;;;;;1.20;0.50;;;;;;;10.45;85.74;99988.84;4996596;27;98610;-29